Αναφορές METAR από Ελληνικά Αεροδρόμια

Σε αυτή τη σελίδα, μπορείτε να παρακολουθείτε τις αναφορές METAR που προέρχονται από τα κυριότερα αεροδρόμια της Ελλάδας. Το περιεχόμενο αποκωδικοποιείται, οπτικοποιείται και γίνεται κατανοητό από τον καθένα με τη χρήση του όμορφου δίγλωσσου γραφικού περιβάλλοντος του meteothes.gr!

Η αρχική κωδικοποιημένη αναφορά, συμπεριλαμβάνεται επίσης στο κάτω μέρος. Σε όποια καθεστερεί η ενημέρωση, το προειδοποιητικό μήνυμα "Μη ενημερωμένο METAR!" εμφανίζεται στο πάνω μέρος της με κόκκινα γράμματα.

Εχουν προστεθεί επίσης δύο αεροδρόμια από γειτονικές χώρες, την Οχρίδα(ΠΓΔΜ) και την Σόφια(Βουλγαρία) για να ελέγχουμε την εξέλιξη των ψυχρών εισβολών από τα Βόρεια!

LGTS - Thessaloniki/Makedonia-Elev 7m
Απόσταση από meteothes.gr: Ν 13km
Ενημερώθηκε: 24/01/2017 02:50
κυρίως νεφελώδης
κυρίως νεφελώδης
 Ανεμος από μεταβλητός
Ανεμος: μεταβλητός 2 km/h
Θερμοκρασία: 3°C
Σημ. Δρόσου: -1°C
Υγρασία: 75%
Βαρόμετρο: 1023 hPa
Νέφωση: κυρίως νεφελώδης
Ορατότητα: 10 km
Λεπτομέρειες Νεφών: Διάσπαρτα Nέφη 305 m
κυρίως νεφελώδης 914 m
2017/01/24 00:50 LGTS 240050Z VRB01KT 9999 FEW010 BKN030 03/M01 Q1023 NOSIG
LGAV - Athens/Elef. Venizelos-Elev 94m
Απόσταση από meteothes.gr: ΝΝΑ 312km
Ενημερώθηκε: 24/01/2017 02:50
Ασθενής βροχή, κυρίως νεφελώδης
Ασθενής βροχή, κυρίως νεφελώδης
 Ανεμος από ΒΒΑ
Ανεμος: ΒΒΑ 28 km/h
Θερμοκρασία: 7°C
Αίσθηση Ψύχρας: 3°C
Σημ. Δρόσου: 5°C
Υγρασία: 87%
Βαρόμετρο: 1019 hPa
Συνθήκες: Ασθενής βροχή
Νέφωση: κυρίως νεφελώδης
Ορατότητα: 10 km
Λεπτομέρειες Νεφών: Διάσπαρτα Nέφη 610 m
κυρίως νεφελώδης 1219 m
κυρίως νεφελώδης 2134 m
2017/01/24 00:50 LGAV 240050Z 03015KT 9999 -RA FEW020TCU BKN040 BKN070 07/05 Q1019 NOSIG
 
LGAL - Alexandroupolis-Elev 3m
Απόσταση από meteothes.gr: Α 251km
Ενημερώθηκε: 23/01/2017 22:50
ΜΗ Ενημερωμένο METAR!
Διάσπαρτα Nέφη
Διάσπαρτα Nέφη
 Ανεμος από Β
Ανεμος: Β 11 km/h
Θερμοκρασία: 2°C
Αίσθηση Ψύχρας: -1°C
Σημ. Δρόσου: -1°C
Υγρασία: 81%
Βαρόμετρο: 1025 hPa
Νέφωση: Διάσπαρτα Nέφη
Ορατότητα: 10 km
Λεπτομέρειες Νεφών: Διάσπαρτα Nέφη 762 m
2017/01/23 20:50 LGAL 232050Z 01006KT 9999 FEW025 02/M01 Q1025
LGKV - Kavala/Crysoupolis-Elev 5m
Απόσταση από meteothes.gr: ΑΒΑ 144km
Ενημερώθηκε: 24/01/2017 01:50
ΜΗ Ενημερωμένο METAR!
κυρίως νεφελώδης
κυρίως νεφελώδης
 Ανεμος από ΑΒΑ
Ανεμος: ΑΒΑ 9 km/h
Θερμοκρασία: 3°C
Αίσθηση Ψύχρας: 0°C
Σημ. Δρόσου: 0°C
Υγρασία: 81%
Βαρόμετρο: 1023 hPa
Νέφωση: κυρίως νεφελώδης
Ορατότητα: 10 km
Λεπτομέρειες Νεφών: Μερικώς νεφελώδης 762 m
κυρίως νεφελώδης 2134 m
2017/01/23 23:50 LGKV 232350Z 07005KT 9999 SCT025 BKN070 03/M00 Q1023
 
LGSK - Skiathos Island-Elev 15m
Απόσταση από meteothes.gr: ΝΝΑ 168km
Ενημερώθηκε: 23/01/2017 19:50
ΜΗ Ενημερωμένο METAR!
κυρίως νεφελώδης
κυρίως νεφελώδης
 Ανεμος από ΒΑ
Ανεμος: ΒΑ 15 km/h
Θερμοκρασία: 8°C
Αίσθηση Ψύχρας: 5°C
Σημ. Δρόσου: 3°C
Υγρασία: 71%
Βαρόμετρο: 1024 hPa
Νέφωση: κυρίως νεφελώδης
Ορατότητα: 10 km
Λεπτομέρειες Νεφών: Διάσπαρτα Nέφη 549 m
κυρίως νεφελώδης 762 m
2017/01/23 17:50 LGSK 231750Z 04008KT 9999 FEW018 BKN025 08/03 Q1024
LGLM - Limnos Island-Elev 5m
Απόσταση από meteothes.gr: ΑΝΑ 210km
Ενημερώθηκε: 24/01/2017 02:50

 Ανεμος από ΑΒΑ
Ανεμος: ΑΒΑ 15 km/h
Θερμοκρασία: 6°C
Αίσθηση Ψύχρας: 3°C
Σημ. Δρόσου: 3°C
Υγρασία: 81%
Βαρόμετρο: 1021 hPa
2017/01/24 00:50 LGLM 240050Z AUTO 06008KT //// // ////// 06/03 Q1021 RE//
 
LGMT - Mitilini Island-Elev 17m
Απόσταση από meteothes.gr: ΑΝΑ 358km
Ενημερώθηκε: 23/01/2017 21:50
ΜΗ Ενημερωμένο METAR!
Αίθριος
Αίθριος
 Ανεμος από ΝΝΑ
Ανεμος: ΝΝΑ 9 km/h
Θερμοκρασία: 6°C
Αίσθηση Ψύχρας: 4°C
Σημ. Δρόσου: 1°C
Υγρασία: 71%
Βαρόμετρο: 1023 hPa
Συνθήκες: Αίθριος
Ορατότητα: πάνω από 10 km
2017/01/23 19:50 LGMT 231950Z 15005KT CAVOK 06/01 Q1023
LGSY - Skiros Island-Elev 15m
Απόσταση από meteothes.gr: ΝΑ 227km
Ενημερώθηκε: 23/01/2017 19:50
ΜΗ Ενημερωμένο METAR!
Μερικώς νεφελώδης
Μερικώς νεφελώδης
 Ανεμος από ΒΒΑ
Ανεμος: ΒΒΑ 22 km/h
Θερμοκρασία: 8°C
Αίσθηση Ψύχρας: 4°C
Σημ. Δρόσου: 7°C
Υγρασία: 93%
Βαρόμετρο: 1023 hPa
Νέφωση: Μερικώς νεφελώδης
Ορατότητα: 10 km
Λεπτομέρειες Νεφών: Μερικώς νεφελώδης 762 m
2017/01/23 17:50 LGSY 231750Z 02012KT 9999 SCT025 08/07 Q1023 RMK SCT090 BLU
 
LGKZ - Kozani-Elev 628m
Απόσταση από meteothes.gr: ΔΝΔ 102km
Ενημερώθηκε: 23/01/2017 19:50
ΜΗ Ενημερωμένο METAR!
Αχλύς, Συννεφιά
Αχλύς, Συννεφιά
 Ανεμος από άπνοια
Ανεμος: άπνοια
Θερμοκρασία: 0°C
Σημ. Δρόσου: -2°C
Υγρασία: 87%
Βαρόμετρο: 1023 hPa
Συνθήκες: Αχλύς
Νέφωση: Συννεφιά
Ορατότητα: 3 km
Λεπτομέρειες Νεφών: Μερικώς νεφελώδης 61 m
κυρίως νεφελώδης 488 m
Συννεφιά 2134 m
2017/01/23 17:50 LGKZ 231750Z 00000KT 3000 BR SCT002 BKN016 OVC070 00/M02 Q1023
LGIO - Ioannina-Elev 476m
Απόσταση από meteothes.gr: ΔΝΔ 209km
Ενημερώθηκε: 24/01/2017 02:50
Ασθενής βροχή, Χιόνι
Ασθενής βροχή, Χιόνι
 Ανεμος από μεταβλητός
Ανεμος: μεταβλητός 0 km/h
Θερμοκρασία: 3°C
Σημ. Δρόσου: 1°C
Υγρασία: 87%
Βαρόμετρο: 1017 hPa
Συνθήκες: Ασθενής βροχή, Χιόνι
2017/01/24 00:50 LGIO 240050Z AUTO /////KT //// -RASN ////// 03/01 Q1017 RE//
 
LGZA - Zakinthos-Elev 3m
Απόσταση από meteothes.gr: ΝΝΔ 367km
Ενημερώθηκε: 23/01/2017 19:50
ΜΗ Ενημερωμένο METAR!
Ασθενής βροχή, κυρίως νεφελώδης
Ασθενής βροχή, κυρίως νεφελώδης
 Ανεμος από ΝΑ
Ανεμος: ΝΑ 11 km/h
Θερμοκρασία: 9°C
Αίσθηση Ψύχρας: 7°C
Σημ. Δρόσου: 8°C
Υγρασία: 94%
Βαρόμετρο: 1020 hPa
Συνθήκες: Ασθενής βροχή
Νέφωση: κυρίως νεφελώδης
Ορατότητα: 10 km
Λεπτομέρειες Νεφών: Μερικώς νεφελώδης 610 m
κυρίως νεφελώδης 2438 m
2017/01/23 17:50 LGZA 231750Z 14006KT 9999 -RA SCT020 BKN080 09/08 Q1020
LGKR - Corfu Island-Elev 2m
Απόσταση από meteothes.gr: ΔΝΔ 282km
Ενημερώθηκε: 24/01/2017 02:50
Ασθενής βροχή, κυρίως νεφελώδης
Ασθενής βροχή, κυρίως νεφελώδης
 Ανεμος από ΑΒΑ
Ανεμος: ΑΒΑ 9 km/h
Θερμοκρασία: 10°C
Αίσθηση Ψύχρας: 9°C
Σημ. Δρόσου: 4°C
Υγρασία: 67%
Βαρόμετρο: 1016 hPa
Συνθήκες: Ασθενής βροχή
Νέφωση: κυρίως νεφελώδης
Ορατότητα: 10 km
Λεπτομέρειες Νεφών: Διάσπαρτα Nέφη 610 m
Μερικώς νεφελώδης 914 m
κυρίως νεφελώδης 2438 m
2017/01/24 00:50 LGKR 240050Z 06005KT 9999 -RA FEW020 SCT030 BKN080 10/04 Q1016 NOSIG
 
LGSO - Syros Island-Elev 72m
Απόσταση από meteothes.gr: ΝΝΑ 397km
Ενημερώθηκε: 24/01/2017 02:50
Ασθενής βροχή
Ασθενής βροχή
 Ανεμος από ΒΒΑ
Ανεμος: ΒΒΑ 24 km/h
Θερμοκρασία: 10°C
Αίσθηση Ψύχρας: 7°C
Σημ. Δρόσου: 8°C
Υγρασία: 88%
Βαρόμετρο: 1018 hPa
Συνθήκες: Ασθενής βροχή
2017/01/24 00:50 LGSO 240050Z AUTO 02013KT 320V050 //// -RA ////// 10/08 Q1018 RE//
LGMK - Mikonos Island-Elev 123m
Απόσταση από meteothes.gr: ΝΝΑ 412km
Ενημερώθηκε: 23/01/2017 19:50
ΜΗ Ενημερωμένο METAR!
κυρίως νεφελώδης
κυρίως νεφελώδης
 Ανεμος από ΒΒΑ
Ανεμος: ΒΒΑ 20 km/h
Θερμοκρασία: 9°C
Αίσθηση Ψύχρας: 6°C
Σημ. Δρόσου: 3°C
Υγρασία: 66%
Βαρόμετρο: 1022 hPa
Νέφωση: κυρίως νεφελώδης
Ορατότητα: 10 km
Λεπτομέρειες Νεφών: Διάσπαρτα Nέφη 549 m
Μερικώς νεφελώδης 762 m
κυρίως νεφελώδης 5486 m
2017/01/23 17:50 LGMK 231750Z 02011KT 9999 FEW018 SCT025 BKN180 09/03 Q1022
 
LGSR - Santorini Island-Elev 40m
Απόσταση από meteothes.gr: ΝΝΑ 520km
Ενημερώθηκε: 24/01/2017 02:50
Ασθενής βροχή
Ασθενής βροχή
 Ανεμος από ΑΝΑ
Ανεμος: ΑΝΑ 33 km/h
Θερμοκρασία: 13°C
Σημ. Δρόσου: 11°C
Υγρασία: 88%
Βαρόμετρο: 1017 hPa
Συνθήκες: Ασθενής βροχή
2017/01/24 00:50 LGSR 240050Z AUTO 12018KT //// -RA ////// 13/11 Q1017 RE//
LGKL - Kalamata-Elev 8m
Απόσταση από meteothes.gr: Ν 405km
Ενημερώθηκε: 24/01/2017 02:50
Συννεφιά
Συννεφιά
 Ανεμος από ΒΒΔ
Ανεμος: ΒΒΔ 13 km/h
Θερμοκρασία: 7°C
Αίσθηση Ψύχρας: 5°C
Σημ. Δρόσου: 5°C
Υγρασία: 87%
Βαρόμετρο: 1015 hPa
Νέφωση: Συννεφιά
Ορατότητα: 10 km
Λεπτομέρειες Νεφών: Διάσπαρτα Nέφη 762 m
Μερικώς νεφελώδης 1067 m
Συννεφιά 2438 m
2017/01/24 00:50 LGKL 240050Z 33007KT 9999 FEW025TCU SCT035 OVC080 07/05 Q1015
 
LGIR - Iraklion/Crete-Elev 5m
Απόσταση από meteothes.gr: ΝΝΑ 622km
Ενημερώθηκε: 24/01/2017 02:20
Μερικώς νεφελώδης
Μερικώς νεφελώδης
 Ανεμος από Ν
Ανεμος: Ν 9 km/h
Θερμοκρασία: 10°C
Αίσθηση Ψύχρας: 9°C
Σημ. Δρόσου: 8°C
Υγρασία: 88%
Βαρόμετρο: 1017 hPa
Νέφωση: Μερικώς νεφελώδης
Ορατότητα: 10 km
Λεπτομέρειες Νεφών: Μερικώς νεφελώδης 610 m
2017/01/24 00:20 LGIR 240020Z 19005KT 9999 SCT020 10/08 Q1017 NOSIG
LGRP - Rhodes-Elev 5m
Απόσταση από meteothes.gr: ΝΑ 649km
Ενημερώθηκε: 24/01/2017 02:50
Μερικώς νεφελώδης
Μερικώς νεφελώδης
 Ανεμος από Α
Ανεμος: Α 11 km/h
Θερμοκρασία: 12°C
Σημ. Δρόσου: 6°C
Υγρασία: 67%
Βαρόμετρο: 1020 hPa
Νέφωση: Μερικώς νεφελώδης
Ορατότητα: 10 km
Λεπτομέρειες Νεφών: Μερικώς νεφελώδης 549 m
2017/01/24 00:50 LGRP 240050Z 09006KT 9999 SCT018 12/06 Q1020 NOSIG
 
LWOH - Ohrid/FYROM-Elev 761m
Απόσταση από meteothes.gr: ΔΒΔ 188km
Ενημερώθηκε: 23/01/2017 17:00
ΜΗ Ενημερωμένο METAR!
Μερικώς νεφελώδης
Μερικώς νεφελώδης
 Ανεμος από ΒΒΑ
Ανεμος: ΒΒΑ 11 km/h
Θερμοκρασία: 3°C
Αίσθηση Ψύχρας: 0°C
Σημ. Δρόσου: -4°C
Υγρασία: 60%
Βαρόμετρο: 1021 hPa
Νέφωση: Μερικώς νεφελώδης
Ορατότητα: 10 km
Λεπτομέρειες Νεφών: Μερικώς νεφελώδης 1067 m
Μερικώς νεφελώδης 2438 m
2017/01/23 15:00 LWOH 231500Z 02006KT 340V040 9999 SCT035 SCT080 03/M04 Q1021
LBSF - Sofia/Bulgaria-Elev 595m
Απόσταση από meteothes.gr: Β 227km
Ενημερώθηκε: 24/01/2017 03:00
Συννεφιά
Συννεφιά
 Ανεμος από Ν
Ανεμος: Ν 4 km/h
Θερμοκρασία: -1°C
Σημ. Δρόσου: -3°C
Υγρασία: 86%
Βαρόμετρο: 1022 hPa
Νέφωση: Συννεφιά
Ορατότητα: 8 km
Λεπτομέρειες Νεφών: Συννεφιά 488 m
2017/01/24 01:00 LBSF 240100Z 19002KT 8000 OVC016 M01/M03 Q1022 R99/19//95 NOSIG

(*) Μερικές αναφορές παρουσιάζουν λιγότερα στοιχεία γιατί οι αρχικές είναι ελλιπείς ή έχουν λάθος μορφοποίηση!